createdAt,value
2022-11-18T00:00:55.025Z,2.80
2022-11-18T00:03:22.265Z,2.82
2022-11-18T00:05:57.360Z,2.86
2022-11-18T00:08:26.005Z,2.90
2022-11-18T00:10:52.968Z,2.92
2022-11-18T00:13:35.356Z,3.01
2022-11-18T00:16:12.946Z,3.06
2022-11-18T00:18:39.614Z,3.06
2022-11-18T00:21:08.935Z,3.04
2022-11-18T00:23:36.772Z,3.08
2022-11-18T00:26:06.634Z,3.18
2022-11-18T00:28:34.014Z,3.16
2022-11-18T00:31:02.920Z,3.17
2022-11-18T00:33:30.802Z,3.25
2022-11-18T00:35:57.982Z,3.30
2022-11-18T00:38:25.577Z,3.30
2022-11-18T00:41:12.013Z,3.29
2022-11-18T00:43:39.623Z,3.28
2022-11-18T00:46:08.736Z,3.27
2022-11-18T00:48:35.640Z,3.23
2022-11-18T00:51:18.526Z,3.24
2022-11-18T00:53:45.181Z,3.32
2022-11-18T00:56:11.913Z,3.34
2022-11-18T00:58:38.878Z,3.35
2022-11-18T01:01:05.768Z,3.32
2022-11-18T01:03:32.691Z,3.52
2022-11-18T01:05:59.469Z,3.52
2022-11-18T01:08:26.166Z,3.50
2022-11-18T01:10:53.634Z,3.53
2022-11-18T01:13:23.143Z,3.54
2022-11-18T01:15:55.525Z,3.56
2022-11-18T01:18:25.351Z,3.59
2022-11-18T01:20:52.593Z,3.68
2022-11-18T01:23:20.744Z,3.66
2022-11-18T01:25:49.700Z,3.71
2022-11-18T01:28:23.159Z,3.93
2022-11-18T01:30:50.456Z,3.81
2022-11-18T01:33:17.186Z,3.92
2022-11-18T01:35:44.494Z,3.87
2022-11-18T01:38:13.018Z,3.92
2022-11-18T01:40:40.253Z,3.89
2022-11-18T01:43:13.873Z,3.94
2022-11-18T01:45:42.534Z,4.08
2022-11-18T01:48:15.714Z,3.96
2022-11-18T01:50:49.483Z,4.00
2022-11-18T01:53:26.160Z,4.02
2022-11-18T01:55:56.189Z,4.10
2022-11-18T01:58:29.484Z,4.03
2022-11-18T02:00:56.436Z,3.95
2022-11-18T02:03:24.637Z,3.93
2022-11-18T02:05:52.446Z,3.87
2022-11-18T02:08:19.727Z,3.86
2022-11-18T02:10:46.670Z,3.86
2022-11-18T02:13:14.261Z,3.90
2022-11-18T02:15:42.002Z,3.86
2022-11-18T02:18:25.023Z,3.90
2022-11-18T02:21:00.977Z,3.90
2022-11-18T02:23:53.793Z,3.89
2022-11-18T02:26:35.692Z,3.91
2022-11-18T02:29:08.988Z,3.92
2022-11-18T02:31:42.305Z,3.93
2022-11-18T02:34:44.110Z,3.97
2022-11-18T02:37:26.045Z,3.98
2022-11-18T02:40:05.863Z,4.02
2022-11-18T02:42:35.811Z,4.00
2022-11-18T02:45:07.356Z,3.96
2022-11-18T02:47:37.467Z,3.95
2022-11-18T02:50:10.948Z,3.98
2022-11-18T02:52:40.206Z,3.97
2022-11-18T02:55:11.248Z,3.98
2022-11-18T02:57:40.423Z,3.95
2022-11-18T03:00:07.524Z,3.96
2022-11-18T03:02:50.051Z,3.99
2022-11-18T03:05:35.267Z,3.97
2022-11-18T03:08:11.190Z,3.93
2022-11-18T03:10:48.746Z,3.95
2022-11-18T03:13:26.977Z,3.98
2022-11-18T03:16:14.563Z,4.02
2022-11-18T03:19:05.387Z,4.02
2022-11-18T03:21:37.753Z,4.02
2022-11-18T03:24:13.738Z,4.13
2022-11-18T03:26:48.789Z,4.21
2022-11-18T03:29:16.663Z,4.13
2022-11-18T03:31:54.039Z,4.13
2022-11-18T03:34:34.247Z,4.34
2022-11-18T03:37:09.014Z,4.27
2022-11-18T03:39:41.825Z,4.25
2022-11-18T03:42:17.038Z,4.17
2022-11-18T03:44:52.620Z,4.11
2022-11-18T03:47:27.276Z,4.07
2022-11-18T03:50:00.201Z,4.08
2022-11-18T03:52:30.982Z,4.07
2022-11-18T03:55:01.773Z,4.03
2022-11-18T03:57:50.267Z,4.06
2022-11-18T04:00:18.184Z,4.06
2022-11-18T04:02:47.879Z,4.08
2022-11-18T04:05:17.135Z,4.10
2022-11-18T04:08:00.230Z,4.10
2022-11-18T04:10:33.505Z,4.13
2022-11-18T04:13:07.051Z,4.13
2022-11-18T04:15:37.956Z,4.11
2022-11-18T04:18:05.723Z,4.15
2022-11-18T04:20:33.804Z,4.14
2022-11-18T04:23:00.891Z,4.19
2022-11-18T04:25:27.604Z,4.22
2022-11-18T04:27:54.315Z,4.19
2022-11-18T04:30:21.335Z,4.17
2022-11-18T04:32:48.019Z,4.17
2022-11-18T04:35:15.553Z,4.17
2022-11-18T04:37:42.385Z,4.21
2022-11-18T04:40:09.915Z,4.21
2022-11-18T04:42:36.833Z,4.22
2022-11-18T04:45:04.886Z,4.19
2022-11-18T04:47:31.608Z,4.26
2022-11-18T04:49:58.230Z,4.21
2022-11-18T04:52:24.883Z,4.24
2022-11-18T04:54:51.607Z,4.25
2022-11-18T04:57:18.312Z,4.21
2022-11-18T04:59:44.963Z,4.20
2022-11-18T05:02:11.665Z,4.20
2022-11-18T05:04:38.378Z,4.22
2022-11-18T05:07:05.812Z,4.22
2022-11-18T05:09:33.816Z,4.23
2022-11-18T05:12:16.871Z,4.23
2022-11-18T05:14:49.531Z,4.26
2022-11-18T05:17:16.569Z,4.28
2022-11-18T05:19:43.244Z,4.29
2022-11-18T05:22:09.991Z,4.30
2022-11-18T05:24:36.705Z,4.34
2022-11-18T05:27:06.529Z,4.31
2022-11-18T05:29:33.739Z,4.31
2022-11-18T05:32:00.421Z,4.30
2022-11-18T05:34:28.745Z,4.33
2022-11-18T05:36:55.395Z,4.33
2022-11-18T05:39:22.027Z,4.33
2022-11-18T05:42:03.996Z,4.33
2022-11-18T05:44:30.689Z,4.34
2022-11-18T05:46:57.386Z,4.36
2022-11-18T05:49:24.100Z,4.34
2022-11-18T05:51:50.777Z,4.37
2022-11-18T05:54:22.844Z,4.37
2022-11-18T05:56:49.977Z,4.43
2022-11-18T05:59:16.943Z,4.48
2022-11-18T06:01:44.845Z,4.43
2022-11-18T06:04:19.803Z,4.43
2022-11-18T06:06:49.376Z,4.45
2022-11-18T06:09:19.547Z,4.42
2022-11-18T06:11:50.883Z,4.49
2022-11-18T06:14:22.678Z,4.54
2022-11-18T06:16:54.623Z,4.66
2022-11-18T06:19:23.120Z,4.74
2022-11-18T06:21:50.238Z,4.76
2022-11-18T06:24:18.427Z,4.74
2022-11-18T06:26:46.270Z,4.50
2022-11-18T06:29:16.853Z,4.47
2022-11-18T06:31:44.215Z,4.42
2022-11-18T06:34:11.015Z,4.56
2022-11-18T06:36:37.688Z,4.63
2022-11-18T06:39:05.759Z,4.53
2022-11-18T06:41:33.187Z,4.62
2022-11-18T06:44:00.164Z,4.61
2022-11-18T06:46:42.410Z,4.72
2022-11-18T06:49:09.087Z,4.72
2022-11-18T06:51:37.945Z,4.63
2022-11-18T06:54:10.490Z,4.65
2022-11-18T06:56:37.692Z,4.76
2022-11-18T06:59:04.508Z,4.82
2022-11-18T07:01:34.644Z,4.73
2022-11-18T07:04:02.384Z,4.74
2022-11-18T07:06:31.199Z,4.83
2022-11-18T07:09:01.735Z,4.82
2022-11-18T07:11:29.138Z,4.89
2022-11-18T07:13:55.952Z,4.77
2022-11-18T07:16:25.111Z,4.66
2022-11-18T07:18:53.267Z,4.60
2022-11-18T07:21:23.447Z,4.57
2022-11-18T07:23:50.311Z,4.58
2022-11-18T07:26:17.947Z,4.68
2022-11-18T07:28:44.685Z,4.72
2022-11-18T07:31:14.371Z,4.81
2022-11-18T07:33:42.249Z,4.84
2022-11-18T07:36:12.571Z,4.74
2022-11-18T07:38:40.015Z,4.72
2022-11-18T07:41:13.161Z,4.72
2022-11-18T07:43:40.286Z,4.62
2022-11-18T07:46:12.470Z,4.61
2022-11-18T07:48:39.400Z,4.66
2022-11-18T07:51:06.726Z,4.68
2022-11-18T07:53:34.756Z,4.88
2022-11-18T07:56:01.843Z,4.86
2022-11-18T07:58:28.655Z,4.76
2022-11-18T08:00:55.589Z,4.75
2022-11-18T08:03:29.613Z,4.70
2022-11-18T08:06:00.517Z,4.86
2022-11-18T08:08:27.571Z,4.80
2022-11-18T08:10:57.896Z,4.80
2022-11-18T08:13:25.543Z,4.95
2022-11-18T08:15:52.958Z,4.85
2022-11-18T08:18:19.911Z,4.90
2022-11-18T08:20:46.767Z,5.00
2022-11-18T08:23:14.590Z,4.94
2022-11-18T08:25:42.682Z,4.89
2022-11-18T08:28:10.372Z,4.96
2022-11-18T08:30:37.517Z,4.96
2022-11-18T08:33:04.829Z,5.10
2022-11-18T08:35:32.394Z,5.15
2022-11-18T08:37:59.702Z,5.08
2022-11-18T08:40:26.910Z,5.16
2022-11-18T08:42:53.552Z,5.17
2022-11-18T08:45:20.318Z,5.23
2022-11-18T08:47:47.009Z,5.15
2022-11-18T08:50:13.734Z,5.12
2022-11-18T08:52:40.424Z,5.14
2022-11-18T08:55:07.319Z,5.26
2022-11-18T08:57:33.932Z,5.44
2022-11-18T09:00:00.730Z,5.36
2022-11-18T09:02:27.493Z,5.48
2022-11-18T09:04:54.178Z,5.56
2022-11-18T09:07:22.069Z,5.53
2022-11-18T09:09:49.020Z,5.64
2022-11-18T09:12:17.621Z,5.54
2022-11-18T09:17:31.930Z,5.57
2022-11-18T09:19:58.661Z,5.42
2022-11-18T09:22:25.407Z,5.39
2022-11-18T09:24:52.047Z,5.38
2022-11-18T09:27:21.930Z,5.35
2022-11-18T09:29:48.670Z,5.37
2022-11-18T09:32:15.732Z,5.35
2022-11-18T09:34:42.384Z,5.38
2022-11-18T09:37:09.043Z,5.39
2022-11-18T09:39:37.057Z,5.39
2022-11-18T09:42:30.201Z,5.40
2022-11-18T09:44:57.852Z,5.42
2022-11-18T09:47:30.484Z,5.48
2022-11-18T09:50:14.805Z,5.51
2022-11-18T09:53:10.543Z,5.56
2022-11-18T09:55:42.771Z,5.64
2022-11-18T09:58:17.081Z,5.62
2022-11-18T10:00:44.748Z,5.65
2022-11-18T10:03:22.677Z,5.68
2022-11-18T10:06:01.154Z,5.85
2022-11-18T10:08:36.594Z,5.78
2022-11-18T10:11:04.836Z,5.93
2022-11-18T10:13:49.035Z,5.91
2022-11-18T10:16:46.990Z,5.87
2022-11-18T10:19:25.642Z,5.89
2022-11-18T10:22:19.545Z,5.97
2022-11-18T10:24:52.209Z,5.94
2022-11-18T10:27:19.262Z,5.92
2022-11-18T10:29:53.149Z,5.95
2022-11-18T10:32:20.197Z,5.94
2022-11-18T10:34:53.640Z,5.96
2022-11-18T10:37:53.003Z,6.11
2022-11-18T10:40:27.628Z,6.14
2022-11-18T10:42:54.692Z,6.11
2022-11-18T10:45:21.536Z,6.10
2022-11-18T10:48:18.848Z,6.13
2022-11-18T10:50:55.086Z,6.21
2022-11-18T10:53:31.735Z,6.18
2022-11-18T10:56:03.784Z,6.18
2022-11-18T10:58:32.146Z,6.19
2022-11-18T11:01:29.476Z,6.22
2022-11-18T11:04:05.691Z,6.30
2022-11-18T11:06:38.307Z,6.41
2022-11-18T11:09:08.512Z,6.53
2022-11-18T11:11:40.088Z,6.55
2022-11-18T11:14:19.983Z,6.61
2022-11-18T11:17:17.555Z,6.56
2022-11-18T11:20:12.501Z,6.56
2022-11-18T11:22:39.253Z,6.56
2022-11-18T11:25:17.829Z,6.55
2022-11-18T11:30:48.453Z,6.71
2022-11-18T11:33:25.985Z,6.81
2022-11-18T11:36:12.489Z,6.79
2022-11-18T11:38:46.732Z,7.06
2022-11-18T11:41:20.865Z,7.21
2022-11-18T11:43:47.548Z,7.35
2022-11-18T11:46:33.913Z,7.34
2022-11-18T11:49:02.525Z,7.43
2022-11-18T11:51:44.408Z,7.47
2022-11-18T11:54:23.326Z,7.47
2022-11-18T11:57:11.659Z,7.55
2022-11-18T11:59:48.903Z,7.54
2022-11-18T12:02:45.139Z,7.51
2022-11-18T12:05:27.120Z,7.53
2022-11-18T12:08:02.387Z,7.62
2022-11-18T12:10:41.751Z,7.57
2022-11-18T12:13:33.957Z,7.58
2022-11-18T12:16:31.003Z,7.56
2022-11-18T12:19:08.090Z,7.51
2022-11-18T12:21:53.003Z,7.53
2022-11-18T12:24:19.596Z,7.57
2022-11-18T12:26:48.671Z,7.58
2022-11-18T12:29:25.704Z,7.55
2022-11-18T12:31:58.237Z,7.54
2022-11-18T12:34:25.887Z,7.54
2022-11-18T12:36:54.232Z,7.58
2022-11-18T12:39:40.798Z,7.51
2022-11-18T12:42:51.160Z,7.52
2022-11-18T12:45:50.307Z,7.53
2022-11-18T12:48:33.876Z,7.50
2022-11-18T12:51:03.637Z,7.56
2022-11-18T12:53:50.266Z,7.53
2022-11-18T12:56:17.851Z,7.59
2022-11-18T12:58:46.078Z,7.64
2022-11-18T13:01:17.484Z,7.71
2022-11-18T13:03:44.692Z,7.69
2022-11-18T13:06:32.321Z,7.71
2022-11-18T13:09:02.197Z,7.70
2022-11-18T13:11:47.533Z,7.70
2022-11-18T13:14:34.037Z,7.65
2022-11-18T13:17:16.348Z,7.67
2022-11-18T13:19:43.036Z,7.64
2022-11-18T13:22:33.807Z,7.64
2022-11-18T13:25:00.464Z,7.68
2022-11-18T13:27:45.779Z,7.65
2022-11-18T13:30:14.017Z,7.59
2022-11-18T13:32:46.079Z,7.63
2022-11-18T13:35:15.650Z,7.67
2022-11-18T13:37:55.042Z,7.57
2022-11-18T13:40:23.114Z,7.59
2022-11-18T13:42:50.040Z,7.56
2022-11-18T13:45:16.803Z,7.57
2022-11-18T13:47:49.203Z,7.53
2022-11-18T13:50:36.786Z,7.50
2022-11-18T13:53:19.795Z,7.58
2022-11-18T13:55:57.074Z,7.58
2022-11-18T13:58:33.993Z,7.50
2022-11-18T14:01:15.970Z,7.51
2022-11-18T14:04:04.383Z,7.53
2022-11-18T14:06:32.299Z,7.53
2022-11-18T14:09:14.150Z,7.52
2022-11-18T14:11:43.752Z,7.38
2022-11-18T14:14:13.332Z,7.35
2022-11-18T14:16:42.243Z,7.27
2022-11-18T14:19:30.026Z,7.22
2022-11-18T14:22:07.436Z,7.17
2022-11-18T14:24:36.983Z,7.15
2022-11-18T14:27:34.044Z,7.13
2022-11-18T14:30:00.747Z,7.08
2022-11-18T14:32:27.459Z,7.00
2022-11-18T14:35:01.633Z,7.01
2022-11-18T14:37:28.574Z,6.98
2022-11-18T14:39:56.846Z,6.95
2022-11-18T14:42:24.514Z,6.97
2022-11-18T14:44:51.305Z,6.92
2022-11-18T14:47:28.594Z,6.91
2022-11-18T14:49:55.672Z,6.92
2022-11-18T14:52:22.281Z,6.87
2022-11-18T14:54:48.915Z,6.85
2022-11-18T14:57:17.346Z,6.80
2022-11-18T14:59:44.150Z,6.74
2022-11-18T15:02:16.328Z,6.72
2022-11-18T15:04:43.165Z,6.75
2022-11-18T15:07:18.613Z,6.72
2022-11-18T15:09:50.750Z,6.70
2022-11-18T15:12:17.727Z,6.64
2022-11-18T15:14:44.339Z,6.64
2022-11-18T15:17:13.294Z,6.59
2022-11-18T15:19:41.543Z,6.62
2022-11-18T15:22:09.559Z,6.58
2022-11-18T15:24:36.281Z,6.56
2022-11-18T15:27:05.381Z,6.55
2022-11-18T15:29:32.641Z,6.55
2022-11-18T15:32:00.188Z,6.48
2022-11-18T15:34:27.044Z,6.49
2022-11-18T15:36:53.662Z,6.45
2022-11-18T15:39:20.346Z,6.45
2022-11-18T15:41:47.037Z,6.39
2022-11-18T15:44:13.691Z,6.38
2022-11-18T15:46:40.535Z,6.34
2022-11-18T15:49:09.853Z,6.32
2022-11-18T15:51:36.996Z,6.24
2022-11-18T15:54:03.781Z,6.19
2022-11-18T15:56:30.869Z,6.22
2022-11-18T15:59:01.089Z,6.21
2022-11-18T16:01:30.143Z,6.09
2022-11-18T16:03:57.592Z,6.10
2022-11-18T16:06:25.331Z,6.16
2022-11-18T16:08:57.768Z,6.11
2022-11-18T16:11:42.903Z,6.05
2022-11-18T16:14:11.739Z,6.08
2022-11-18T16:16:40.389Z,6.09
2022-11-18T16:19:10.494Z,6.00
2022-11-18T16:21:40.681Z,6.10
2022-11-18T16:24:10.891Z,6.10
2022-11-18T16:26:37.685Z,6.11
2022-11-18T16:29:10.926Z,5.98
2022-11-18T16:31:41.047Z,6.05
2022-11-18T16:34:12.576Z,6.00
2022-11-18T16:36:41.287Z,6.05
2022-11-18T16:39:11.839Z,5.96
2022-11-18T16:41:40.126Z,5.91
2022-11-18T16:44:09.278Z,5.93
2022-11-18T16:46:39.241Z,5.89
2022-11-18T16:49:07.658Z,5.93
2022-11-18T16:51:35.233Z,5.93
2022-11-18T16:54:04.663Z,5.94
2022-11-18T16:56:33.976Z,5.92
2022-11-18T16:59:11.561Z,5.87
2022-11-18T17:01:38.355Z,5.94
2022-11-18T17:04:05.234Z,5.95
2022-11-18T17:06:32.309Z,5.96
2022-11-18T17:08:59.745Z,5.93
2022-11-18T17:11:26.749Z,5.90
2022-11-18T17:13:57.675Z,5.96
2022-11-18T17:16:25.571Z,5.86
2022-11-18T17:19:00.345Z,5.82
2022-11-18T17:21:29.115Z,5.95
2022-11-18T17:23:56.782Z,5.89
2022-11-18T17:26:26.471Z,5.89
2022-11-18T17:28:57.386Z,5.87
2022-11-18T17:31:25.010Z,5.95
2022-11-18T17:33:53.717Z,5.95
2022-11-18T17:36:23.186Z,5.90
2022-11-18T17:38:52.676Z,5.97
2022-11-18T17:41:37.052Z,5.90
2022-11-18T17:44:05.837Z,5.87
2022-11-18T17:46:37.772Z,5.88
2022-11-18T17:49:10.656Z,5.90
2022-11-18T17:51:37.328Z,5.90
2022-11-18T17:54:04.170Z,5.86
2022-11-18T17:56:34.132Z,5.81
2022-11-18T17:59:00.985Z,5.80
2022-11-18T18:01:27.767Z,5.79
2022-11-18T18:03:54.408Z,5.76
2022-11-18T18:06:21.750Z,5.82
2022-11-18T18:08:48.403Z,5.90
2022-11-18T18:11:18.324Z,5.80
2022-11-18T18:14:00.913Z,5.81
2022-11-18T18:16:29.110Z,5.68
2022-11-18T18:18:57.746Z,5.65
2022-11-18T18:21:24.405Z,5.70
2022-11-18T18:23:51.150Z,5.68
2022-11-18T18:26:18.016Z,5.67
2022-11-18T18:28:45.139Z,5.65
2022-11-18T18:31:13.775Z,5.65
2022-11-18T18:33:41.085Z,5.68
2022-11-18T18:36:10.927Z,5.62
2022-11-18T18:38:40.247Z,5.68
2022-11-18T18:41:09.325Z,5.82
2022-11-18T18:43:35.976Z,5.80
2022-11-18T18:46:22.193Z,5.80
2022-11-18T18:48:48.839Z,5.73
2022-11-18T18:51:15.483Z,5.70
2022-11-18T18:53:42.100Z,5.72
2022-11-18T18:56:09.702Z,5.67
2022-11-18T18:58:36.382Z,5.68
2022-11-18T19:01:13.190Z,5.74
2022-11-18T19:03:40.842Z,5.67
2022-11-18T19:06:47.541Z,5.66
2022-11-18T19:09:01.917Z,5.66
2022-11-18T19:11:44.395Z,5.63
2022-11-18T19:14:13.870Z,5.62
2022-11-18T19:16:41.450Z,5.63
2022-11-18T19:19:09.860Z,5.61
2022-11-18T19:21:36.557Z,5.62
2022-11-18T19:24:05.073Z,5.62
2022-11-18T19:26:35.120Z,5.61
2022-11-18T19:29:02.287Z,5.67
2022-11-18T19:31:28.962Z,5.67
2022-11-18T19:33:55.638Z,5.71
2022-11-18T19:36:22.309Z,5.72
2022-11-18T19:38:50.089Z,5.72
2022-11-18T19:41:16.822Z,5.68
2022-11-18T19:43:43.558Z,5.67
2022-11-18T19:46:10.198Z,5.68
2022-11-18T19:48:36.854Z,5.64
2022-11-18T19:51:13.040Z,5.67
2022-11-18T19:53:41.515Z,5.63
2022-11-18T19:56:12.584Z,5.70
2022-11-18T19:58:41.044Z,5.66
2022-11-18T20:01:10.468Z,5.65
2022-11-18T20:03:37.227Z,5.65
2022-11-18T20:06:04.701Z,5.67
2022-11-18T20:08:34.444Z,5.68
2022-11-18T20:11:07.970Z,5.68
2022-11-18T20:13:37.306Z,5.70
2022-11-18T20:16:05.473Z,5.73
2022-11-18T20:18:33.022Z,5.80
2022-11-18T20:21:07.954Z,5.82
2022-11-18T20:23:36.059Z,5.90
2022-11-18T20:26:05.893Z,5.85
2022-11-18T20:28:35.919Z,5.84
2022-11-18T20:31:04.229Z,5.82
2022-11-18T20:33:36.064Z,5.81
2022-11-18T20:36:12.559Z,5.80
2022-11-18T20:38:41.716Z,5.77
2022-11-18T20:41:10.576Z,5.74
2022-11-18T20:43:38.447Z,5.79
2022-11-18T20:46:07.583Z,5.79
2022-11-18T20:48:35.901Z,5.79
2022-11-18T20:51:06.063Z,5.79
2022-11-18T20:53:32.780Z,5.84
2022-11-18T20:55:59.419Z,5.80
2022-11-18T20:58:26.146Z,5.86
2022-11-18T21:00:52.823Z,5.83
2022-11-18T21:03:21.258Z,5.87
2022-11-18T21:05:48.419Z,5.85
2022-11-18T21:08:16.191Z,5.81
2022-11-18T21:10:42.924Z,5.88
2022-11-18T21:13:24.964Z,5.82
2022-11-18T21:15:51.760Z,5.95
2022-11-18T21:18:18.416Z,5.90
2022-11-18T21:21:00.317Z,5.98
2022-11-18T21:23:27.059Z,6.10
2022-11-18T21:25:53.807Z,6.10
2022-11-18T21:28:20.510Z,6.09
2022-11-18T21:30:47.127Z,5.98
2022-11-18T21:33:14.304Z,5.94
2022-11-18T21:35:40.975Z,5.84
2022-11-18T21:38:07.600Z,5.80
2022-11-18T21:40:34.207Z,5.87
2022-11-18T21:43:01.035Z,5.82
2022-11-18T21:45:27.663Z,5.80
2022-11-18T21:47:54.315Z,5.78
2022-11-18T21:50:20.996Z,5.85
2022-11-18T21:52:47.625Z,5.75
2022-11-18T21:55:14.348Z,5.75
2022-11-18T21:57:44.705Z,5.78
2022-11-18T22:00:11.943Z,5.76
2022-11-18T22:02:38.654Z,5.75
2022-11-18T22:05:07.129Z,5.68
2022-11-18T22:07:34.087Z,5.61
2022-11-18T22:10:00.747Z,5.71
2022-11-18T22:12:27.575Z,5.74
2022-11-18T22:14:54.231Z,5.64
2022-11-18T22:17:20.846Z,5.65
2022-11-18T22:19:47.455Z,5.69
2022-11-18T22:22:14.156Z,5.71
2022-11-18T22:24:41.008Z,5.70
2022-11-18T22:27:11.302Z,5.65
2022-11-18T22:29:38.342Z,5.57
2022-11-18T22:32:05.142Z,5.53
2022-11-18T22:34:31.830Z,5.70
2022-11-18T22:36:58.659Z,5.66
2022-11-18T22:39:25.354Z,5.73
2022-11-18T22:42:07.184Z,5.58
2022-11-18T22:44:33.850Z,5.53
2022-11-18T22:47:00.491Z,5.58
2022-11-18T22:49:27.184Z,5.73
2022-11-18T22:51:53.830Z,5.80
2022-11-18T22:54:38.334Z,5.85
2022-11-18T22:57:05.789Z,5.86
2022-11-18T22:59:32.446Z,5.83
2022-11-18T23:01:59.367Z,5.81
2022-11-18T23:04:26.019Z,5.74
2022-11-18T23:06:52.778Z,5.78
2022-11-18T23:09:19.608Z,5.71
2022-11-18T23:12:01.743Z,5.66
2022-11-18T23:14:28.384Z,5.70
2022-11-18T23:16:55.063Z,5.62
2022-11-18T23:19:22.163Z,5.67
2022-11-18T23:21:49.075Z,5.59
2022-11-18T23:24:18.132Z,5.58
2022-11-18T23:26:45.585Z,5.54
2022-11-18T23:29:13.344Z,5.56
2022-11-18T23:31:42.907Z,5.76
2022-11-18T23:34:12.004Z,5.68
2022-11-18T23:36:39.027Z,5.61
2022-11-18T23:39:06.478Z,5.66
2022-11-18T23:41:33.311Z,5.67
2022-11-18T23:43:59.959Z,5.62
2022-11-18T23:46:27.723Z,5.64
2022-11-18T23:48:54.413Z,5.60
2022-11-18T23:51:23.208Z,5.64
2022-11-18T23:53:56.098Z,5.65
2022-11-18T23:56:24.937Z,5.62
2022-11-18T23:58:53.273Z,5.73
